Time;durP1;ratioP1;P1;durP2;ratioP2;P2;SDS_P1;SDS_P2;PMS_P1;PMS_P2;Temp;Humidity;BMP_temperature;BMP_pressure;BME280_temperature;BME280_humidity;BME280_pressure;Samples;Min_cycle;Max_cycle;Signal;HPM_P1;HPM_P2
2022/12/25 00:00:15;;;;;;;;;;;;;;;5.54;84.13;95612.81;5115358;28;1015;-60
2022/12/25 00:02:41;;;;;;;;;;;;;;;5.57;84.29;95615.19;5113931;28;1008;-60
2022/12/25 00:05:07;;;;;;;;;;;;;;;5.58;84.65;95600.97;5114316;28;983;-60
2022/12/25 00:07:33;;;;;;;;;;;;;;;5.58;84.67;95593.03;5114520;28;1329;-60
2022/12/25 00:09:59;;;;;;;;;;;;;;;5.70;84.54;95596.53;5115209;28;1960;-60
2022/12/25 00:12:25;;;;;;;;;;;;;;;5.68;84.04;95604.59;5115099;27;1294;-60
2022/12/25 00:14:52;;;;;;;;;;;;;;;5.62;85.03;95602.44;5114048;28;818;-60
2022/12/25 00:17:18;;;;;;;;;;;;;;;5.59;86.68;95602.66;5114952;28;944;-60
2022/12/25 00:19:44;;;;;;;;;;;;;;;5.59;84.90;95604.47;5113726;28;1106;-60
2022/12/25 00:22:10;;;;;;;;;;;;;;;5.63;84.21;95611.22;5113888;28;980;-60
2022/12/25 00:24:36;;;;;;;;;;;;;;;5.55;82.53;95611.81;5114674;28;1087;-60
2022/12/25 00:27:02;;;;;;;;;;;;;;;5.35;82.88;95609.84;5114821;28;1123;-60
2022/12/25 00:29:28;;;;;;;;;;;;;;;5.13;84.17;95600.06;5113501;28;1993;-60
2022/12/25 00:31:54;;;;;;;;;;;;;;;5.07;88.87;95590.78;5113431;28;1091;-59
2022/12/25 00:34:20;;;;;;;;;;;;;;;5.18;86.34;95598.75;5113347;28;1237;-60
2022/12/25 00:36:49;;;;;;;;;;;;;;;5.28;85.02;95602.38;5114765;28;963;-60
2022/12/25 00:39:15;;;;;;;;;;;;;;;5.25;83.10;95607.06;5114746;28;976;-60
2022/12/25 00:44:25;;;;;;;;;;;;;;;5.12;84.49;95607.16;5114412;28;1019;-60
2022/12/25 00:46:51;;;;;;;;;;;;;;;5.18;84.59;95613.78;5113237;28;1102;-60
2022/12/25 00:49:17;;;;;;;;;;;;;;;5.23;83.58;95612.47;5113017;28;1914;-59
2022/12/25 00:51:43;;;;;;;;;;;;;;;5.20;83.49;95626.00;5113126;28;1027;-60
2022/12/25 00:54:10;;;;;;;;;;;;;;;5.12;83.42;95623.06;5114328;28;1090;-60
2022/12/25 00:56:36;;;;;;;;;;;;;;;5.07;83.34;95618.13;5113063;28;1043;-60
2022/12/25 00:59:02;;;;;;;;;;;;;;;5.11;82.62;95633.81;5114226;28;991;-60
2022/12/25 01:01:28;;;;;;;;;;;;;;;4.98;81.18;95633.88;5114091;28;980;-60
2022/12/25 01:03:54;;;;;;;;;;;;;;;4.83;82.85;95623.44;5112964;28;1048;-59
2022/12/25 01:06:20;;;;;;;;;;;;;;;4.80;83.74;95620.19;5113917;28;1127;-60
2022/12/25 01:11:31;;;;;;;;;;;;;;;4.55;84.04;95621.16;5114013;28;1004;-59
2022/12/25 01:13:57;;;;;;;;;;;;;;;4.52;84.96;95614.28;5113980;28;1034;-60
2022/12/25 01:16:24;;;;;;;;;;;;;;;4.55;84.75;95619.34;5113922;28;1114;-60
2022/12/25 01:18:50;;;;;;;;;;;;;;;4.59;85.02;95620.84;5114024;28;1027;-60
2022/12/25 01:21:18;;;;;;;;;;;;;;;4.43;86.52;95625.56;5113548;28;1026;-60
2022/12/25 01:23:44;;;;;;;;;;;;;;;4.46;86.74;95612.94;5113969;28;1086;-60
2022/12/25 01:26:12;;;;;;;;;;;;;;;4.67;85.47;95617.63;5112687;28;1027;-59
2022/12/25 01:28:38;;;;;;;;;;;;;;;4.74;84.68;95616.19;5113649;28;1909;-59
2022/12/25 01:31:07;;;;;;;;;;;;;;;4.57;85.66;95613.94;5113847;28;1043;-60
2022/12/25 01:33:33;;;;;;;;;;;;;;;4.66;84.90;95616.75;5113935;28;996;-59
2022/12/25 01:35:59;;;;;;;;;;;;;;;4.73;84.46;95619.81;5112562;28;1024;-60
2022/12/25 01:38:25;;;;;;;;;;;;;;;4.76;83.29;95622.25;5113763;28;1027;-60
2022/12/25 01:40:51;;;;;;;;;;;;;;;4.61;84.17;95618.03;5112472;28;1127;-60
2022/12/25 01:43:25;;;;;;;;;;;;;;;4.52;83.47;95611.66;5113696;28;1020;-60
2022/12/25 01:45:51;;;;;;;;;;;;;;;4.51;83.31;95615.25;5114167;28;1031;-59
2022/12/25 01:48:22;;;;;;;;;;;;;;;4.50;84.06;95613.56;5112531;28;1225;-60
2022/12/25 01:50:53;;;;;;;;;;;;;;;4.57;84.24;95606.88;5113557;28;1901;-60
2022/12/25 01:53:19;;;;;;;;;;;;;;;4.57;85.28;95606.00;5113624;28;963;-60
2022/12/25 01:55:47;;;;;;;;;;;;;;;4.55;85.02;95610.56;5113892;28;1043;-59
2022/12/25 01:58:14;;;;;;;;;;;;;;;4.64;84.34;95602.78;5113644;28;973;-60
2022/12/25 02:00:40;;;;;;;;;;;;;;;4.59;81.41;95606.72;5113628;28;956;-60
2022/12/25 02:03:06;;;;;;;;;;;;;;;4.49;81.22;95615.34;5112461;28;980;-60
2022/12/25 02:05:33;;;;;;;;;;;;;;;4.21;79.82;95619.19;5113447;28;1024;-60
2022/12/25 02:08:03;;;;;;;;;;;;;;;4.09;83.03;95620.06;5113482;28;953;-60
2022/12/25 02:10:29;;;;;;;;;;;;;;;4.11;83.98;95624.25;5112096;28;1910;-60
2022/12/25 02:12:55;;;;;;;;;;;;;;;4.18;83.48;95629.13;5113622;28;1044;-59
2022/12/25 02:15:23;;;;;;;;;;;;;;;4.20;83.59;95628.06;5113502;28;1015;-60
2022/12/25 02:17:49;;;;;;;;;;;;;;;4.20;83.85;95636.00;5112157;28;1059;-59
2022/12/25 02:20:51;;;;;;;;;;;;;;;4.26;83.31;95643.50;5113490;28;1052;-60
2022/12/25 02:23:20;;;;;;;;;;;;;;;4.30;82.86;95652.91;5030634;28;1170;-60
2022/12/25 02:25:48;;;;;;;;;;;;;;;4.27;83.37;95642.56;5098363;28;1044;-59
2022/12/25 02:28:17;;;;;;;;;;;;;;;4.32;83.34;95642.22;5113459;28;1071;-59
2022/12/25 02:30:47;;;;;;;;;;;;;;;4.27;80.83;95647.84;5113505;28;1980;-59
2022/12/25 02:36:10;;;;;;;;;;;;;;;4.00;82.10;95642.72;5117010;28;1111;-59
2022/12/25 02:39:56;;;;;;;;;;;;;;;4.00;82.96;95637.41;5115642;28;1119;-60
2022/12/25 02:41:26;;;;;;;;;;;;;;;3.88;83.26;95633.00;5116847;28;1103;-59
2022/12/25 03:08:48;;;;;;;;;;;;;;;4.11;81.24;95649.91;5116204;28;1902;-59
2022/12/25 03:11:30;;;;;;;;;;;;;;;4.00;83.03;95647.16;5116524;28;976;-59
2022/12/25 03:16:49;;;;;;;;;;;;;;;3.99;81.61;95675.44;5116205;28;1040;-60
2022/12/25 03:27:32;;;;;;;;;;;;;;;3.77;82.23;95696.41;5115895;28;1052;-59
2022/12/25 03:32:57;;;;;;;;;;;;;;;4.08;84.96;95697.75;5115955;28;1078;-59
2022/12/25 03:35:29;;;;;;;;;;;;;;;4.10;86.84;95701.97;5115766;28;1087;-59
2022/12/25 04:36:41;;;;;;;;;;;;;;;3.33;79.27;95743.41;5114521;28;1043;-59
2022/12/25 04:39:07;;;;;;;;;;;;;;;3.25;79.61;95758.94;5114878;28;972;-59
2022/12/25 04:41:33;;;;;;;;;;;;;;;3.16;80.00;95752.47;5113297;28;1047;-60
2022/12/25 04:43:59;;;;;;;;;;;;;;;2.95;80.22;95757.38;5113632;28;1689;-59
2022/12/25 04:46:26;;;;;;;;;;;;;;;2.79;82.06;95765.44;5114548;28;952;-59
2022/12/25 04:48:52;;;;;;;;;;;;;;;2.89;81.29;95770.97;5114264;27;1910;-59
2022/12/25 04:51:19;;;;;;;;;;;;;;;2.91;79.02;95777.00;5147165;27;1007;-60
2022/12/25 04:53:45;;;;;;;;;;;;;;;2.89;80.18;95765.69;5114217;28;1040;-60
2022/12/25 04:56:12;;;;;;;;;;;;;;;2.84;81.09;95775.69;5114318;28;1028;-60
2022/12/25 04:58:38;;;;;;;;;;;;;;;3.01;80.30;95786.00;5114159;28;1076;-60
2022/12/25 05:01:04;;;;;;;;;;;;;;;3.08;79.83;95791.75;5114182;28;1051;-59
2022/12/25 05:03:30;;;;;;;;;;;;;;;2.97;78.49;95799.53;5112992;28;1015;-60
2022/12/25 05:05:57;;;;;;;;;;;;;;;2.85;78.91;95793.25;5112738;28;1170;-60
2022/12/25 05:08:23;;;;;;;;;;;;;;;2.76;81.34;95794.69;5112938;28;1103;-59
2022/12/25 05:10:49;;;;;;;;;;;;;;;2.86;81.24;95790.50;5113038;28;1905;-59
2022/12/25 05:13:15;;;;;;;;;;;;;;;3.06;80.82;95791.84;5114025;28;1036;-59
2022/12/25 05:15:41;;;;;;;;;;;;;;;3.10;80.43;95793.34;5112784;28;944;-60
2022/12/25 05:18:08;;;;;;;;;;;;;;;3.16;79.84;95789.47;5114077;28;1048;-59
2022/12/25 05:20:35;;;;;;;;;;;;;;;3.18;79.64;95786.72;5113860;28;964;-59
2022/12/25 05:23:01;;;;;;;;;;;;;;;3.11;78.32;95786.25;5112955;28;947;-59
2022/12/25 05:25:27;;;;;;;;;;;;;;;2.94;79.43;95784.75;5114003;28;956;-60
2022/12/25 05:27:53;;;;;;;;;;;;;;;2.86;80.22;95787.84;5112810;28;968;-59
2022/12/25 05:30:19;;;;;;;;;;;;;;;2.88;79.79;95785.97;5113792;28;2013;-59
2022/12/25 05:32:46;;;;;;;;;;;;;;;2.98;79.71;95799.44;5113842;28;1048;-59
2022/12/25 05:35:12;;;;;;;;;;;;;;;2.96;79.78;95795.19;5112631;28;991;-59
2022/12/25 05:37:38;;;;;;;;;;;;;;;3.03;79.58;95801.78;5112485;28;1028;-60
2022/12/25 05:40:04;;;;;;;;;;;;;;;2.86;77.18;95802.84;5114009;28;1039;-60
2022/12/25 05:42:30;;;;;;;;;;;;;;;2.76;80.27;95801.75;5112637;28;1000;-60
2022/12/25 05:44:57;;;;;;;;;;;;;;;2.74;81.00;95813.25;5113841;28;1035;-60
2022/12/25 05:47:23;;;;;;;;;;;;;;;2.80;80.54;95821.75;5113509;28;1220;-60
2022/12/25 05:49:49;;;;;;;;;;;;;;;2.91;80.90;95822.75;5113469;28;1980;-59
2022/12/25 05:52:15;;;;;;;;;;;;;;;2.97;83.52;95821.50;5112459;28;1048;-59
2022/12/25 05:54:41;;;;;;;;;;;;;;;2.95;82.67;95836.63;5113760;28;960;-59
2022/12/25 05:57:07;;;;;;;;;;;;;;;2.84;84.73;95834.66;5113652;28;1115;-60
2022/12/25 05:59:33;;;;;;;;;;;;;;;2.89;83.99;95837.84;5112318;28;1130;-60
2022/12/25 06:01:59;;;;;;;;;;;;;;;2.80;82.73;95830.50;5114010;28;1036;-60
2022/12/25 06:04:25;;;;;;;;;;;;;;;2.79;83.18;95834.09;5112240;28;1170;-60
2022/12/25 06:06:52;;;;;;;;;;;;;;;2.91;82.15;95832.47;5115631;28;1079;-60
2022/12/25 06:09:18;;;;;;;;;;;;;;;2.95;82.71;95835.78;5099442;28;2017;-60
2022/12/25 06:11:44;;;;;;;;;;;;;;;2.97;82.45;95841.81;5117632;28;1046;-60
2022/12/25 06:14:14;;;;;;;;;;;;;;;3.01;82.58;95846.78;5117589;28;979;-59
2022/12/25 06:16:40;;;;;;;;;;;;;;;2.96;82.10;95845.38;5117384;28;1036;-60
2022/12/25 06:19:06;;;;;;;;;;;;;;;2.95;82.69;95859.53;5117252;28;963;-60
2022/12/25 06:21:32;;;;;;;;;;;;;;;3.05;81.90;95853.56;5115977;28;1031;-59
2022/12/25 06:23:59;;;;;;;;;;;;;;;3.04;80.03;95862.44;5117472;28;984;-59
2022/12/25 06:26:25;;;;;;;;;;;;;;;2.99;79.59;95871.63;5117196;28;1058;-59
2022/12/25 06:28:51;;;;;;;;;;;;;;;3.08;79.91;95874.50;5115912;28;1989;-60
2022/12/25 06:31:19;;;;;;;;;;;;;;;3.16;79.76;95876.66;5117120;28;1047;-59
2022/12/25 06:33:45;;;;;;;;;;;;;;;3.22;79.93;95868.34;5117044;28;952;-60
2022/12/25 06:36:15;;;;;;;;;;;;;;;3.35;80.15;95881.63;5117043;28;1024;-60
2022/12/25 06:38:41;;;;;;;;;;;;;;;3.43;81.28;95894.34;5116944;28;1043;-60
2022/12/25 06:41:10;;;;;;;;;;;;;;;3.42;81.42;95884.72;5117226;28;1015;-60
2022/12/25 06:43:37;;;;;;;;;;;;;;;3.53;83.50;95892.81;5116822;28;1098;-60
2022/12/25 06:46:07;;;;;;;;;;;;;;;3.73;84.06;95891.50;5116813;28;1093;-60
2022/12/25 06:48:33;;;;;;;;;;;;;;;3.75;83.38;95883.47;5116564;28;1172;-60
2022/12/25 06:50:59;;;;;;;;;;;;;;;3.77;82.62;95886.84;5116654;28;1902;-60
2022/12/25 06:53:25;;;;;;;;;;;;;;;3.83;82.93;95873.22;5098450;28;1523;-59
2022/12/25 06:55:52;;;;;;;;;;;;;;;4.19;80.61;95880.50;5116621;28;1035;-59
2022/12/25 06:58:18;;;;;;;;;;;;;;;6.04;75.25;95878.78;5116492;28;1091;-59
2022/12/25 07:00:44;;;;;;;;;;;;;;;10.62;59.05;95883.88;5116540;28;1027;-60
2022/12/25 07:03:14;;;;;;;;;;;;;;;14.23;48.04;95905.03;5115493;28;1103;-61
2022/12/25 07:05:40;;;;;;;;;;;;;;;15.91;42.94;95910.75;5116172;28;1230;-63
2022/12/25 07:08:06;;;;;;;;;;;;;;;15.53;41.93;95922.16;5115177;28;1044;-61
2022/12/25 07:10:32;;;;;;;;;;;;;;;13.04;46.09;95912.06;5114961;28;1986;-60
2022/12/25 07:12:58;;;;;;;;;;;;;;;9.77;56.38;95890.78;5149262;27;1040;-60
2022/12/25 07:15:24;;;;;;;;;;;;;;;7.57;66.27;95891.69;5115073;28;1023;-59
2022/12/25 07:17:50;;;;;;;;;;;;;;;6.45;69.53;95904.00;5115252;28;1046;-61
2022/12/25 07:20:16;;;;;;;;;;;;;;;5.82;74.67;95911.38;5115254;28;964;-60
2022/12/25 07:22:42;;;;;;;;;;;;;;;5.54;74.38;95916.97;5116365;28;980;-59
2022/12/25 07:25:09;;;;;;;;;;;;;;;5.26;77.68;95924.28;5148892;27;1325;-60
2022/12/25 07:27:35;;;;;;;;;;;;;;;5.18;78.03;95929.28;5114968;28;1096;-60
2022/12/25 07:30:01;;;;;;;;;;;;;;;5.16;79.41;95936.50;5115938;28;1991;-60
2022/12/25 07:32:30;;;;;;;;;;;;;;;5.12;80.06;95935.03;5115946;28;953;-61
2022/12/25 07:34:56;;;;;;;;;;;;;;;5.02;78.00;95937.47;5115936;28;1114;-60
2022/12/25 07:37:23;;;;;;;;;;;;;;;5.18;77.86;95942.53;5115871;28;1031;-60
2022/12/25 07:39:49;;;;;;;;;;;;;;;5.43;78.58;95944.31;5115881;28;1032;-61
2022/12/25 07:42:15;;;;;;;;;;;;;;;5.57;76.92;95949.44;5115883;28;1161;-62
2022/12/25 07:44:41;;;;;;;;;;;;;;;5.84;76.22;95951.03;5115679;27;956;-61
2022/12/25 07:47:07;;;;;;;;;;;;;;;6.13;74.28;95956.03;5114822;28;1031;-61
2022/12/25 07:49:34;;;;;;;;;;;;;;;6.54;73.01;95955.59;5115353;28;1914;-59
2022/12/25 07:52:00;;;;;;;;;;;;;;;7.06;71.41;95945.41;5115595;28;1040;-59
2022/12/25 07:54:26;;;;;;;;;;;;;;;7.45;69.72;95951.19;5114444;28;992;-59
2022/12/25 07:56:52;;;;;;;;;;;;;;;7.92;67.89;95943.88;5115591;28;1016;-60
2022/12/25 07:59:18;;;;;;;;;;;;;;;8.23;66.68;95951.97;5114240;28;956;-59
2022/12/25 08:01:44;;;;;;;;;;;;;;;8.48;66.19;95950.84;5115395;28;1050;-60
2022/12/25 08:04:11;;;;;;;;;;;;;;;8.66;65.10;95953.75;5115522;28;1003;-60
2022/12/25 08:06:37;;;;;;;;;;;;;;;8.55;65.56;95967.16;5115264;28;1116;-60
2022/12/25 08:09:11;;;;;;;;;;;;;;;8.42;65.19;95969.97;5115334;28;1913;-60
2022/12/25 08:11:38;;;;;;;;;;;;;;;8.02;67.70;95971.44;5113957;28;1099;-61
2022/12/25 08:14:08;;;;;;;;;;;;;;;8.01;67.33;95984.88;5113969;28;945;-60
2022/12/25 08:16:34;;;;;;;;;;;;;;;8.05;66.82;95988.16;5115353;28;952;-60
2022/12/25 08:19:00;;;;;;;;;;;;;;;8.00;66.98;95993.84;5115280;28;1054;-60
2022/12/25 08:21:26;;;;;;;;;;;;;;;7.99;66.61;95997.47;5115104;28;1095;-59
2022/12/25 08:23:52;;;;;;;;;;;;;;;7.98;66.39;95996.63;5115079;28;972;-60
2022/12/25 08:26:19;;;;;;;;;;;;;;;8.08;66.80;95985.22;5114925;28;1035;-60
2022/12/25 08:28:46;;;;;;;;;;;;;;;8.21;67.37;95993.91;5113269;28;1918;-60
2022/12/25 08:31:15;;;;;;;;;;;;;;;8.42;66.04;95990.47;5113919;28;1036;-60
2022/12/25 08:33:41;;;;;;;;;;;;;;;8.58;65.27;95989.06;5114941;28;972;-60
2022/12/25 08:36:09;;;;;;;;;;;;;;;8.74;64.72;95979.78;5113576;28;1276;-61
2022/12/25 08:38:35;;;;;;;;;;;;;;;8.89;64.19;95982.97;5114575;28;1040;-62
2022/12/25 08:41:02;;;;;;;;;;;;;;;9.27;63.49;95978.84;5114679;28;1039;-59
2022/12/25 08:43:28;;;;;;;;;;;;;;;9.30;63.01;95978.59;5114571;28;1023;-60
2022/12/25 08:45:54;;;;;;;;;;;;;;;9.43;62.87;95975.66;5114802;28;985;-60
2022/12/25 08:48:20;;;;;;;;;;;;;;;9.54;62.88;95978.25;5114578;28;1208;-59
2022/12/25 08:50:47;;;;;;;;;;;;;;;9.62;62.67;95975.78;5113352;28;1901;-59
2022/12/25 08:53:13;;;;;;;;;;;;;;;9.76;62.53;95974.53;5114546;28;1034;-59
2022/12/25 08:55:39;;;;;;;;;;;;;;;9.83;62.35;95972.19;5114317;28;1028;-59
2022/12/25 08:58:06;;;;;;;;;;;;;;;9.97;62.07;95972.63;5114314;28;1041;-59
2022/12/25 09:00:32;;;;;;;;;;;;;;;10.02;62.62;95979.41;5114491;28;1039;-59
2022/12/25 09:02:58;;;;;;;;;;;;;;;9.97;63.11;95977.97;5114481;28;1040;-59
2022/12/25 09:05:24;;;;;;;;;;;;;;;10.27;61.88;95980.69;5114335;28;1019;-59
2022/12/25 09:07:50;;;;;;;;;;;;;;;10.52;61.36;95976.66;5114054;28;1226;-59
2022/12/25 09:10:16;;;;;;;;;;;;;;;10.57;61.36;95973.56;5114170;28;1910;-59
2022/12/25 09:12:42;;;;;;;;;;;;;;;10.80;60.38;95968.78;5114140;28;894;-59
2022/12/25 09:15:08;;;;;;;;;;;;;;;10.63;61.15;95967.66;5114357;28;943;-59
2022/12/25 09:17:34;;;;;;;;;;;;;;;10.65;60.69;95971.03;5114049;28;1020;-59
2022/12/25 09:20:00;;;;;;;;;;;;;;;10.79;60.00;95973.25;5114197;28;1028;-59
2022/12/25 09:22:26;;;;;;;;;;;;;;;11.36;58.90;95977.81;5113952;28;1091;-59
2022/12/25 09:24:53;;;;;;;;;;;;;;;11.82;57.29;95973.38;5114030;28;1036;-59
2022/12/25 09:27:19;;;;;;;;;;;;;;;12.52;55.32;95976.38;5113815;28;1094;-60
2022/12/25 09:29:45;;;;;;;;;;;;;;;13.39;53.83;95974.75;5114051;28;1952;-60
2022/12/25 09:32:11;;;;;;;;;;;;;;;14.55;50.30;95978.72;5114096;28;1035;-60
2022/12/25 09:34:37;;;;;;;;;;;;;;;14.46;50.59;95988.66;5112653;28;1036;-60
2022/12/25 09:37:03;;;;;;;;;;;;;;;13.54;52.13;95985.75;5112764;28;1023;-60
2022/12/25 09:39:29;;;;;;;;;;;;;;;14.36;50.47;95985.25;5113708;28;1962;-60
2022/12/25 09:42:05;;;;;;;;;;;;;;;16.03;47.03;95974.09;5115010;28;1023;-62
2022/12/25 09:44:54;;;;;;;;;;;;;;;16.00;46.08;95975.25;5117838;28;1103;-60
2022/12/25 09:47:21;;;;;;;;;;;;;;;15.59;47.52;95963.75;5117329;28;1787;-60
2022/12/25 09:49:51;;;;;;;;;;;;;;;17.34;44.36;95977.81;5117229;28;1902;-60
2022/12/25 09:52:24;;;;;;;;;;;;;;;20.98;37.57;95997.97;5117747;28;957;-64
2022/12/25 09:55:07;;;;;;;;;;;;;;;22.41;34.67;96006.56;5117925;28;1569;-61
2022/12/25 09:57:33;;;;;;;;;;;;;;;24.05;31.65;96011.44;5116762;28;1024;-62
2022/12/25 09:59:59;;;;;;;;;;;;;;;24.86;30.81;96016.88;5117976;28;1015;-61
2022/12/25 10:02:35;;;;;;;;;;;;;;;24.73;30.68;96015.97;5117404;28;1397;-62
2022/12/25 10:05:20;;;;;;;;;;;;;;;22.73;33.56;96005.81;5116439;28;1575;-61
2022/12/25 10:07:58;;;;;;;;;;;;;;;20.67;36.69;95981.16;5095871;28;1511;-63
2022/12/25 10:10:43;;;;;;;;;;;;;;;19.91;38.84;95986.63;5116433;28;1906;-61
2022/12/25 10:13:24;;;;;;;;;;;;;;;19.56;38.97;95980.28;5117463;28;1039;-61
2022/12/25 10:16:04;;;;;;;;;;;;;;;19.03;39.58;95964.44;5117474;28;1020;-63
2022/12/25 10:18:30;;;;;;;;;;;;;;;18.56;40.12;95961.19;5117589;28;1027;-63
2022/12/25 10:20:57;;;;;;;;;;;;;;;18.88;38.79;95970.72;5117399;28;1088;-63
2022/12/25 10:23:34;;;;;;;;;;;;;;;20.24;37.30;95970.53;5117316;28;1044;-62
2022/12/25 10:26:00;;;;;;;;;;;;;;;23.24;32.79;95991.28;5117320;28;1032;-62
2022/12/25 10:28:37;;;;;;;;;;;;;;;26.39;29.04;96005.44;5117459;28;1012;-63
2022/12/25 10:31:14;;;;;;;;;;;;;;;28.51;26.24;96012.63;5117169;28;2235;-63
2022/12/25 10:33:40;;;;;;;;;;;;;;;29.93;24.65;96024.78;5117030;28;1079;-63
2022/12/25 10:36:08;;;;;;;;;;;;;;;30.70;23.94;96034.44;5115955;28;1030;-63
2022/12/25 10:38:35;;;;;;;;;;;;;;;30.93;23.77;96026.88;5117163;28;1054;-64
2022/12/25 10:41:01;;;;;;;;;;;;;;;30.50;24.12;96029.63;5117179;28;953;-64
2022/12/25 10:43:42;;;;;;;;;;;;;;;28.90;25.99;96018.16;5117020;28;1045;-63
2022/12/25 10:46:13;;;;;;;;;;;;;;;24.61;30.75;95987.75;5116919;28;1043;-64
2022/12/25 10:48:42;;;;;;;;;;;;;;;21.16;35.98;95965.59;5116700;28;1236;-61
2022/12/25 10:51:08;;;;;;;;;;;;;;;19.75;39.15;95938.94;5116937;28;1978;-62
2022/12/25 10:53:42;;;;;;;;;;;;;;;20.51;38.96;95931.75;5116404;28;1040;-62
2022/12/25 10:56:18;;;;;;;;;;;;;;;24.87;31.84;95967.44;5116737;28;1119;-62
2022/12/25 10:58:44;;;;;;;;;;;;;;;28.60;26.96;95975.38;5111099;28;1967;-62
2022/12/25 11:01:11;;;;;;;;;;;;;;;31.24;24.61;95988.31;5097997;28;1461;-63
2022/12/25 11:03:38;;;;;;;;;;;;;;;33.11;22.65;96009.00;5116309;27;1116;-63
2022/12/25 11:06:06;;;;;;;;;;;;;;;34.02;21.37;96012.31;5116692;28;1584;-63
2022/12/25 11:08:33;;;;;;;;;;;;;;;34.31;20.70;96013.50;5115325;28;1511;-63
2022/12/25 11:11:05;;;;;;;;;;;;;;;33.16;21.98;96002.59;5116375;28;1961;-61
2022/12/25 11:13:35;;;;;;;;;;;;;;;31.23;23.92;95984.72;5095287;28;2880;-60
2022/12/25 11:16:11;;;;;;;;;;;;;;;29.89;24.73;95976.78;5095870;28;1107;-60
2022/12/25 11:18:48;;;;;;;;;;;;;;;29.20;25.68;95975.56;5095729;28;1027;-60
2022/12/25 11:21:21;;;;;;;;;;;;;;;28.18;27.02;95964.88;5095624;28;1039;-62
2022/12/25 11:23:48;;;;;;;;;;;;;;;28.09;27.07;95969.16;5095704;28;1044;-61
2022/12/25 11:26:16;;;;;;;;;;;;;;;29.89;25.34;95968.50;5095422;28;1019;-62
2022/12/25 11:28:43;;;;;;;;;;;;;;;26.54;28.01;95940.00;5095741;28;1115;-50
2022/12/25 11:31:19;;;;;;;;;;;;;;;20.11;38.36;95909.88;5095561;28;1902;-49
2022/12/25 11:33:58;;;;;;;;;;;;;;;16.76;45.01;95877.47;5095788;28;952;-48
2022/12/25 11:36:44;;;;;;;;;;;;;;;15.01;50.20;95856.09;5095545;28;1007;-49
2022/12/25 11:39:22;;;;;;;;;;;;;;;14.21;53.82;95843.34;5095602;28;1032;-48
2022/12/25 11:41:50;;;;;;;;;;;;;;;13.63;55.69;95849.59;5106609;28;1537;-48
2022/12/25 11:44:27;;;;;;;;;;;;;;;13.39;56.26;95839.59;5115826;28;956;-48
2022/12/25 11:46:54;;;;;;;;;;;;;;;12.81;57.84;95847.31;5115790;28;1231;-48
2022/12/25 11:49:21;;;;;;;;;;;;;;;12.61;59.66;95849.34;5115226;28;1917;-48
2022/12/25 11:51:49;;;;;;;;;;;;;;;12.65;60.06;95866.84;5115907;28;1039;-48
2022/12/25 11:54:25;;;;;;;;;;;;;;;12.54;61.37;95871.59;5109390;28;1648;-48
2022/12/25 11:56:51;;;;;;;;;;;;;;;12.64;60.12;95881.25;5115606;28;994;-49
2022/12/25 11:59:27;;;;;;;;;;;;;;;12.77;60.03;95875.47;5114243;28;966;-48
2022/12/25 12:02:02;;;;;;;;;;;;;;;13.04;59.23;95877.16;5115361;28;1048;-48
2022/12/25 12:04:31;;;;;;;;;;;;;;;12.87;60.37;95875.38;5114859;28;1035;-49
2022/12/25 12:07:12;;;;;;;;;;;;;;;12.64;60.87;95886.63;5115238;28;1059;-48
2022/12/25 12:09:47;;;;;;;;;;;;;;;12.63;60.67;95884.91;5115055;28;1921;-49
2022/12/25 12:12:16;;;;;;;;;;;;;;;12.99;60.97;95881.31;5115022;28;968;-49
2022/12/25 12:14:46;;;;;;;;;;;;;;;13.17;59.87;95884.78;5114526;27;1653;-48
2022/12/25 12:17:14;;;;;;;;;;;;;;;13.31;59.55;95880.69;5108875;28;1588;-48
2022/12/25 12:19:40;;;;;;;;;;;;;;;13.20;59.09;95878.25;5110068;28;1849;-48
2022/12/25 12:22:13;;;;;;;;;;;;;;;13.33;58.80;95875.16;5114517;28;1432;-49
2022/12/25 12:24:41;;;;;;;;;;;;;;;13.31;59.35;95883.38;5107911;28;1993;-48
2022/12/25 12:27:20;;;;;;;;;;;;;;;12.93;60.92;95880.09;5100693;28;1211;-48
2022/12/25 12:29:52;;;;;;;;;;;;;;;12.97;61.00;95884.16;5114949;28;1934;-48
2022/12/25 12:32:38;;;;;;;;;;;;;;;13.07;61.72;95884.03;5102286;28;1802;-48
2022/12/25 12:35:08;;;;;;;;;;;;;;;13.16;61.08;95874.19;5102679;28;2234;-48
2022/12/25 12:37:35;;;;;;;;;;;;;;;13.17;60.23;95873.22;5105635;28;1299;-48
2022/12/25 12:40:04;;;;;;;;;;;;;;;13.13;59.03;95872.69;5094582;28;996;-48
2022/12/25 12:42:32;;;;;;;;;;;;;;;13.18;61.83;95874.88;5094086;28;1040;-48
2022/12/25 12:45:06;;;;;;;;;;;;;;;13.15;62.37;95878.75;5094215;28;1011;-48
2022/12/25 12:47:47;;;;;;;;;;;;;;;13.05;62.80;95886.03;5096061;28;1185;-48
2022/12/25 12:50:31;;;;;;;;;;;;;;;12.99;65.15;95882.16;5114582;28;1918;-47
2022/12/25 12:52:58;;;;;;;;;;;;;;;12.93;60.72;95881.94;5114281;28;1028;-48
2022/12/25 12:55:28;;;;;;;;;;;;;;;13.00;60.37;95874.97;5113715;28;1109;-48
2022/12/25 12:58:02;;;;;;;;;;;;;;;12.98;63.02;95877.78;5114352;28;1039;-48
2022/12/25 13:00:35;;;;;;;;;;;;;;;12.98;62.27;95885.00;5114052;28;1039;-48
2022/12/25 13:03:16;;;;;;;;;;;;;;;12.93;57.41;95882.78;5114511;28;1042;-48
2022/12/25 13:05:46;;;;;;;;;;;;;;;13.02;57.79;95883.69;5113697;28;1373;-48
2022/12/25 13:08:32;;;;;;;;;;;;;;;12.99;58.05;95875.94;5134336;27;1510;-48
2022/12/25 13:11:13;;;;;;;;;;;;;;;12.91;57.63;95875.91;5134499;27;1910;-48
2022/12/25 13:13:40;;;;;;;;;;;;;;;12.88;59.12;95877.91;5134386;27;956;-48
2022/12/25 13:16:13;;;;;;;;;;;;;;;12.76;61.81;95883.69;5134456;27;961;-48
2022/12/25 13:18:40;;;;;;;;;;;;;;;12.70;60.49;95879.78;5134587;27;968;-48
2022/12/25 13:21:12;;;;;;;;;;;;;;;12.77;58.48;95882.69;5134263;27;1027;-48
2022/12/25 13:23:38;;;;;;;;;;;;;;;12.85;55.46;95877.38;5134612;27;1048;-48
2022/12/25 13:26:10;;;;;;;;;;;;;;;12.92;54.97;95881.13;5134426;27;1079;-48
2022/12/25 13:28:36;;;;;;;;;;;;;;;12.97;56.10;95876.09;5130846;27;1873;-48
2022/12/25 13:31:10;;;;;;;;;;;;;;;12.96;55.08;95873.59;5114160;28;1988;-48
2022/12/25 13:33:37;;;;;;;;;;;;;;;12.87;54.34;95861.97;5112747;28;1893;-48
2022/12/25 13:36:04;;;;;;;;;;;;;;;12.94;57.67;95880.94;5114002;28;1047;-48
2022/12/25 13:38:30;;;;;;;;;;;;;;;12.75;61.64;95879.28;5114012;28;1057;-48
2022/12/25 13:43:42;;;;;;;;;;;;;;;12.46;61.95;95893.81;5113683;28;960;-48
2022/12/25 13:46:12;;;;;;;;;;;;;;;12.30;61.59;95898.06;5113744;28;1209;-48
2022/12/25 13:48:38;;;;;;;;;;;;;;;12.21;60.36;95901.66;5113318;28;1978;-48
2022/12/25 13:51:12;;;;;;;;;;;;;;;12.15;61.45;95901.44;5112716;28;1914;-48
2022/12/25 13:53:38;;;;;;;;;;;;;;;12.06;63.52;95900.50;5112824;28;1098;-48
2022/12/25 13:56:04;;;;;;;;;;;;;;;11.94;66.75;95901.72;5113309;28;2024;-48
2022/12/25 13:58:32;;;;;;;;;;;;;;;11.89;67.24;95908.38;5113694;28;967;-48
2022/12/25 14:00:59;;;;;;;;;;;;;;;11.77;66.46;95906.03;5113534;28;987;-48
2022/12/25 14:03:38;;;;;;;;;;;;;;;11.63;66.03;95902.84;5113761;28;1011;-48
2022/12/25 14:06:15;;;;;;;;;;;;;;;11.60;67.17;95916.53;5113879;28;1059;-48
2022/12/25 14:08:42;;;;;;;;;;;;;;;11.38;65.68;95904.38;5112113;28;1111;-48
2022/12/25 14:11:09;;;;;;;;;;;;;;;11.21;66.35;95903.34;5113254;28;1914;-48
2022/12/25 14:13:36;;;;;;;;;;;;;;;11.09;65.74;95908.00;5113291;28;960;-48
2022/12/25 14:16:03;;;;;;;;;;;;;;;10.92;66.18;95903.41;5113586;28;968;-49
2022/12/25 14:18:29;;;;;;;;;;;;;;;10.82;65.74;95898.09;5113143;28;1051;-48
2022/12/25 14:21:06;;;;;;;;;;;;;;;10.64;66.44;95902.47;5107581;28;1732;-47
2022/12/25 14:23:40;;;;;;;;;;;;;;;10.49;66.80;95905.59;5113400;28;1055;-48
2022/12/25 14:26:06;;;;;;;;;;;;;;;10.26;67.13;95901.50;5113484;28;981;-48
2022/12/25 14:28:33;;;;;;;;;;;;;;;10.11;67.30;95899.25;5116289;28;1071;-48
2022/12/25 14:31:00;;;;;;;;;;;;;;;10.01;67.70;95900.22;5117377;28;1913;-48
2022/12/25 14:33:28;;;;;;;;;;;;;;;9.76;68.47;95910.44;5116945;28;1011;-48
2022/12/25 14:35:54;;;;;;;;;;;;;;;9.48;69.19;95907.56;5117382;28;968;-48
2022/12/25 14:38:25;;;;;;;;;;;;;;;9.43;69.10;95909.81;5117173;28;1064;-48
2022/12/25 14:40:58;;;;;;;;;;;;;;;9.36;68.57;95914.81;5116651;27;1630;-48
2022/12/25 14:43:25;;;;;;;;;;;;;;;9.27;68.90;95912.13;5117069;28;949;-48
2022/12/25 14:45:55;;;;;;;;;;;;;;;9.19;68.60;95910.13;5117040;28;984;-48
2022/12/25 14:48:22;;;;;;;;;;;;;;;9.15;68.86;95917.56;5116883;28;1220;-48
2022/12/25 14:51:00;;;;;;;;;;;;;;;9.05;68.91;95913.13;5116568;28;1909;-48
2022/12/25 14:53:45;;;;;;;;;;;;;;;8.82;69.43;95918.66;5116036;28;1047;-49
2022/12/25 14:56:15;;;;;;;;;;;;;;;8.63;70.10;95915.84;5116672;28;968;-49
2022/12/25 14:58:42;;;;;;;;;;;;;;;8.62;69.73;95915.00;5116443;27;1027;-49
2022/12/25 15:01:18;;;;;;;;;;;;;;;8.68;69.42;95918.97;5116565;28;1035;-49